Time;durP1;ratioP1;P1;durP2;ratioP2;P2;SDS_P1;SDS_P2;PMS_P1;PMS_P2;Temp;Humidity;BMP_temperature;BMP_pressure;BME280_temperature;BME280_humidity;BME280_pressure;Samples;Min_cycle;Max_cycle;Signal;HPM_P1;HPM_P2
2021/04/23 00:00:42;;;;;;;;;;;22.00;26.20;;;;;;497491;239;1322;-73
2021/04/23 00:02:43;;;;;;;;;;;21.90;26.20;;;;;;497623;239;1148;-73
2021/04/23 00:04:44;;;;;;;;;;;21.90;26.20;;;;;;497710;239;1287;-73
2021/04/23 00:06:46;;;;;;;;;;;21.90;26.20;;;;;;497561;239;1327;-72
2021/04/23 00:08:47;;;;;;;;;;;22.00;26.20;;;;;;497709;239;1008;-73
2021/04/23 00:10:48;;;;;;;;;;;21.90;26.20;;;;;;497751;239;1058;-72
2021/04/23 00:12:50;;;;;;;;;;;21.90;26.20;;;;;;497778;239;921;-72
2021/04/23 00:14:51;;;;;;;;;;;21.90;26.20;;;;;;497701;239;1152;-72
2021/04/23 00:16:52;;;;;;;;;;;21.90;26.20;;;;;;497753;239;1212;-72
2021/04/23 00:18:53;;;;;;;;;;;21.80;26.20;;;;;;497766;239;2200;-72
2021/04/23 00:20:55;;;;;;;;;;;21.90;26.30;;;;;;497766;239;1247;-72
2021/04/23 00:22:56;;;;;;;;;;;21.80;26.30;;;;;;497690;239;1017;-73
2021/04/23 00:24:57;;;;;;;;;;;21.80;26.30;;;;;;497868;239;990;-73
2021/04/23 00:26:59;;;;;;;;;;;21.80;26.30;;;;;;497788;239;1311;-72
2021/04/23 00:29:00;;;;;;;;;;;21.80;26.30;;;;;;497726;239;1009;-72
2021/04/23 00:31:02;;;;;;;;;;;21.80;26.30;;;;;;497748;239;1192;-72
2021/04/23 00:33:02;;;;;;;;;;;21.80;26.30;;;;;;497740;238;1425;-72
2021/04/23 00:35:04;;;;;;;;;;;21.80;26.30;;;;;;497785;239;926;-72
2021/04/23 00:37:05;;;;;;;;;;;21.80;26.40;;;;;;497755;239;1047;-72
2021/04/23 00:39:06;;;;;;;;;;;21.70;26.40;;;;;;497715;238;2177;-73
2021/04/23 00:41:08;;;;;;;;;;;21.70;26.40;;;;;;497716;239;1255;-73
2021/04/23 00:43:09;;;;;;;;;;;21.70;26.30;;;;;;497689;239;1100;-73
2021/04/23 00:45:10;;;;;;;;;;;21.70;26.30;;;;;;497733;239;1170;-73
2021/04/23 00:47:14;;;;;;;;;;;21.70;26.30;;;;;;497701;239;1298;-73
2021/04/23 00:49:15;;;;;;;;;;;21.70;26.30;;;;;;497804;239;976;-73
2021/04/23 00:51:16;;;;;;;;;;;21.70;26.30;;;;;;497680;239;1288;-72
2021/04/23 00:53:18;;;;;;;;;;;21.60;26.30;;;;;;497686;239;1288;-72
2021/04/23 00:55:19;;;;;;;;;;;21.60;26.40;;;;;;497771;238;949;-72
2021/04/23 00:57:20;;;;;;;;;;;21.60;26.40;;;;;;497641;239;1171;-72
2021/04/23 00:59:22;;;;;;;;;;;21.60;26.40;;;;;;497791;239;2121;-72
2021/04/23 01:01:23;;;;;;;;;;;21.60;26.40;;;;;;497738;239;1179;-72
2021/04/23 01:03:24;;;;;;;;;;;21.50;26.40;;;;;;497756;239;1082;-72
2021/04/23 01:05:25;;;;;;;;;;;21.50;26.40;;;;;;497741;239;929;-73
2021/04/23 01:07:27;;;;;;;;;;;21.50;26.40;;;;;;497708;239;1142;-73
2021/04/23 01:09:28;;;;;;;;;;;21.50;26.40;;;;;;497767;238;920;-73
2021/04/23 01:11:29;;;;;;;;;;;21.50;26.40;;;;;;497756;239;967;-73
2021/04/23 01:13:31;;;;;;;;;;;21.60;26.40;;;;;;497741;239;948;-72
2021/04/23 01:15:32;;;;;;;;;;;21.60;26.40;;;;;;497737;239;1161;-73
2021/04/23 01:17:33;;;;;;;;;;;21.60;26.40;;;;;;497732;239;927;-73
2021/04/23 01:19:35;;;;;;;;;;;21.60;26.40;;;;;;497668;239;2184;-72
2021/04/23 01:21:36;;;;;;;;;;;21.50;26.40;;;;;;497744;239;946;-73
2021/04/23 01:23:37;;;;;;;;;;;21.50;26.40;;;;;;497742;239;946;-73
2021/04/23 01:25:39;;;;;;;;;;;21.40;26.50;;;;;;497888;239;1115;-73
2021/04/23 01:27:40;;;;;;;;;;;21.40;26.50;;;;;;497742;239;1066;-72
2021/04/23 01:29:41;;;;;;;;;;;21.40;26.50;;;;;;497703;239;937;-73
2021/04/23 01:31:43;;;;;;;;;;;21.40;26.50;;;;;;497740;239;1165;-73
2021/04/23 01:33:44;;;;;;;;;;;21.50;26.50;;;;;;497792;239;980;-73
2021/04/23 01:35:45;;;;;;;;;;;21.40;26.50;;;;;;497759;239;1138;-73
2021/04/23 01:37:47;;;;;;;;;;;21.40;26.50;;;;;;497831;239;2157;-73
2021/04/23 01:39:48;;;;;;;;;;;21.40;26.60;;;;;;497758;239;991;-73
2021/04/23 01:41:49;;;;;;;;;;;21.40;26.60;;;;;;497733;239;938;-73
2021/04/23 01:43:51;;;;;;;;;;;21.30;26.60;;;;;;497729;239;1059;-73
2021/04/23 01:45:52;;;;;;;;;;;21.40;26.50;;;;;;497726;239;1197;-73
2021/04/23 01:47:53;;;;;;;;;;;21.30;26.60;;;;;;497814;239;1098;-73
2021/04/23 01:49:54;;;;;;;;;;;21.30;26.60;;;;;;497770;239;940;-73
2021/04/23 01:51:56;;;;;;;;;;;21.30;26.60;;;;;;497798;239;924;-73
2021/04/23 01:53:57;;;;;;;;;;;21.30;26.60;;;;;;497744;239;974;-73
2021/04/23 01:55:58;;;;;;;;;;;21.30;26.70;;;;;;497813;239;935;-73
2021/04/23 01:58:00;;;;;;;;;;;21.30;26.70;;;;;;497705;239;2193;-73
2021/04/23 02:00:01;;;;;;;;;;;21.30;26.60;;;;;;497683;239;1316;-73
2021/04/23 02:02:02;;;;;;;;;;;21.30;26.60;;;;;;497813;239;1222;-72
2021/04/23 02:04:03;;;;;;;;;;;21.20;26.60;;;;;;497721;239;1039;-72
2021/04/23 02:06:08;;;;;;;;;;;21.20;26.70;;;;;;497813;239;955;-72
2021/04/23 02:08:08;;;;;;;;;;;21.20;26.70;;;;;;497601;238;1402;-73
2021/04/23 02:10:09;;;;;;;;;;;21.20;26.70;;;;;;497797;239;1107;-73
2021/04/23 02:12:10;;;;;;;;;;;21.20;26.70;;;;;;497720;239;950;-73
2021/04/23 02:14:11;;;;;;;;;;;21.20;26.70;;;;;;497683;239;949;-72
2021/04/23 02:16:13;;;;;;;;;;;21.20;26.70;;;;;;497678;239;1304;-72
2021/04/23 02:18:14;;;;;;;;;;;21.20;26.70;;;;;;497776;239;2134;-72
2021/04/23 02:20:15;;;;;;;;;;;21.20;26.70;;;;;;497712;239;901;-73
2021/04/23 02:22:17;;;;;;;;;;;21.20;26.70;;;;;;497718;239;1128;-73
2021/04/23 02:24:18;;;;;;;;;;;21.20;26.70;;;;;;497707;239;981;-73
2021/04/23 02:26:25;;;;;;;;;;;21.20;26.70;;;;;;497752;239;981;-72
2021/04/23 02:28:26;;;;;;;;;;;21.20;26.70;;;;;;497719;239;1110;-72
2021/04/23 02:30:28;;;;;;;;;;;21.20;26.70;;;;;;497778;239;1083;-72
2021/04/23 02:32:29;;;;;;;;;;;21.10;26.70;;;;;;497756;239;1184;-72
2021/04/23 02:34:30;;;;;;;;;;;21.10;26.70;;;;;;497732;240;1147;-73
2021/04/23 02:36:31;;;;;;;;;;;21.10;26.80;;;;;;497761;240;957;-73
2021/04/23 02:38:33;;;;;;;;;;;21.10;26.80;;;;;;497744;238;2177;-73
2021/04/23 02:40:34;;;;;;;;;;;21.10;26.70;;;;;;497726;239;921;-72
2021/04/23 02:42:36;;;;;;;;;;;21.10;26.70;;;;;;497720;239;1011;-73
2021/04/23 02:44:38;;;;;;;;;;;21.10;26.80;;;;;;497636;239;952;-73
2021/04/23 02:46:39;;;;;;;;;;;21.00;26.70;;;;;;497732;239;1122;-73
2021/04/23 02:48:41;;;;;;;;;;;21.00;26.70;;;;;;497719;239;933;-72
2021/04/23 02:50:42;;;;;;;;;;;21.00;26.80;;;;;;497864;239;986;-73
2021/04/23 02:52:43;;;;;;;;;;;21.00;26.80;;;;;;497711;239;1142;-73
2021/04/23 02:54:44;;;;;;;;;;;21.00;26.80;;;;;;497749;239;914;-73
2021/04/23 02:56:46;;;;;;;;;;;21.00;26.80;;;;;;497750;239;1310;-72
2021/04/23 02:58:47;;;;;;;;;;;21.10;26.80;;;;;;497652;239;2138;-72
2021/04/23 03:00:51;;;;;;;;;;;21.00;26.70;;;;;;497714;239;1128;-72
2021/04/23 03:02:52;;;;;;;;;;;21.00;26.70;;;;;;497659;238;1080;-72
2021/04/23 03:04:54;;;;;;;;;;;21.00;26.70;;;;;;497757;239;935;-72
2021/04/23 03:06:55;;;;;;;;;;;21.00;26.70;;;;;;497649;239;1408;-73
2021/04/23 03:08:56;;;;;;;;;;;21.10;26.80;;;;;;497734;239;1078;-72
2021/04/23 03:10:57;;;;;;;;;;;21.10;26.70;;;;;;497760;239;1155;-73
2021/04/23 03:12:58;;;;;;;;;;;21.10;26.70;;;;;;497807;239;961;-73
2021/04/23 03:15:00;;;;;;;;;;;21.10;26.70;;;;;;497773;239;978;-72
2021/04/23 03:17:01;;;;;;;;;;;21.10;26.70;;;;;;497748;239;1141;-72
2021/04/23 03:19:02;;;;;;;;;;;21.10;26.70;;;;;;497723;239;2181;-73
2021/04/23 03:21:04;;;;;;;;;;;21.10;26.80;;;;;;497798;239;985;-73
2021/04/23 03:23:05;;;;;;;;;;;21.00;26.70;;;;;;497645;239;990;-73
2021/04/23 03:25:06;;;;;;;;;;;21.00;26.80;;;;;;497775;239;922;-73
2021/04/23 03:27:07;;;;;;;;;;;21.00;26.70;;;;;;497791;239;1209;-73
2021/04/23 03:29:09;;;;;;;;;;;21.00;26.80;;;;;;497699;239;995;-73
2021/04/23 03:31:10;;;;;;;;;;;21.00;26.80;;;;;;497712;239;1329;-73
2021/04/23 03:33:12;;;;;;;;;;;21.10;26.70;;;;;;497650;239;1171;-73
2021/04/23 03:35:13;;;;;;;;;;;21.10;26.70;;;;;;497720;239;996;-73
2021/04/23 03:37:14;;;;;;;;;;;21.10;26.80;;;;;;497756;239;1215;-73
2021/04/23 03:39:16;;;;;;;;;;;21.00;26.70;;;;;;497785;239;2185;-73
2021/04/23 03:41:17;;;;;;;;;;;21.00;26.70;;;;;;497737;239;1290;-73
2021/04/23 03:43:18;;;;;;;;;;;21.10;26.80;;;;;;497773;239;1086;-73
2021/04/23 03:45:22;;;;;;;;;;;21.00;26.70;;;;;;497796;239;1032;-73
2021/04/23 03:47:23;;;;;;;;;;;21.10;26.70;;;;;;497761;239;1177;-73
2021/04/23 03:49:24;;;;;;;;;;;21.10;26.60;;;;;;497769;239;1056;-73
2021/04/23 03:51:25;;;;;;;;;;;21.20;26.60;;;;;;497746;239;1015;-73
2021/04/23 03:53:27;;;;;;;;;;;21.20;26.50;;;;;;497707;239;958;-73
2021/04/23 03:55:29;;;;;;;;;;;21.30;26.50;;;;;;497689;239;945;-72
2021/04/23 03:57:30;;;;;;;;;;;21.20;26.40;;;;;;497730;239;1047;-73
2021/04/23 03:59:31;;;;;;;;;;;21.30;26.50;;;;;;497719;239;2142;-73
2021/04/23 04:01:34;;;;;;;;;;;21.20;26.40;;;;;;497689;239;1064;-73
2021/04/23 04:03:36;;;;;;;;;;;21.20;26.40;;;;;;497644;239;1484;-73
2021/04/23 04:05:35;;;;;;;;;;;21.20;26.50;;;;;;497716;239;1402;-73
2021/04/23 04:07:37;;;;;;;;;;;21.30;26.40;;;;;;497757;239;1045;-73
2021/04/23 04:09:38;;;;;;;;;;;21.30;26.40;;;;;;497771;239;931;-73
2021/04/23 04:11:40;;;;;;;;;;;21.30;26.30;;;;;;497799;239;1117;-73
2021/04/23 04:13:42;;;;;;;;;;;21.30;26.30;;;;;;497842;239;929;-73
2021/04/23 04:15:43;;;;;;;;;;;21.40;26.30;;;;;;497904;239;1238;-73
2021/04/23 04:17:44;;;;;;;;;;;21.30;26.30;;;;;;497748;239;1150;-73
2021/04/23 04:19:46;;;;;;;;;;;21.30;26.30;;;;;;497852;239;2145;-73
2021/04/23 04:21:47;;;;;;;;;;;21.30;26.40;;;;;;497242;238;1234;-73
2021/04/23 04:23:48;;;;;;;;;;;21.30;26.30;;;;;;497731;239;1084;-73
2021/04/23 04:25:50;;;;;;;;;;;21.30;26.30;;;;;;497860;239;1264;-73
2021/04/23 04:27:51;;;;;;;;;;;21.30;26.30;;;;;;497789;239;1335;-73
2021/04/23 04:29:52;;;;;;;;;;;21.30;26.30;;;;;;497674;240;1025;-73
2021/04/23 04:31:54;;;;;;;;;;;21.30;26.30;;;;;;497820;239;1137;-73
2021/04/23 04:33:55;;;;;;;;;;;21.20;26.30;;;;;;497738;239;1173;-73
2021/04/23 04:35:56;;;;;;;;;;;21.30;26.30;;;;;;497737;239;948;-73
2021/04/23 04:37:58;;;;;;;;;;;21.30;26.30;;;;;;497799;239;1045;-73
2021/04/23 04:39:59;;;;;;;;;;;21.30;26.30;;;;;;497757;240;2185;-73
2021/04/23 04:42:00;;;;;;;;;;;21.30;26.30;;;;;;497797;239;1045;-73
2021/04/23 04:44:02;;;;;;;;;;;21.30;26.30;;;;;;497793;239;938;-73
2021/04/23 04:46:03;;;;;;;;;;;21.30;26.30;;;;;;497821;239;1141;-73
2021/04/23 04:48:04;;;;;;;;;;;21.30;26.30;;;;;;497765;235;1311;-73
2021/04/23 04:50:05;;;;;;;;;;;21.30;26.30;;;;;;497813;239;1013;-73
2021/04/23 04:52:07;;;;;;;;;;;21.30;26.30;;;;;;497748;239;951;-73
2021/04/23 04:54:08;;;;;;;;;;;21.30;26.30;;;;;;497817;239;1073;-73
2021/04/23 04:56:09;;;;;;;;;;;21.30;26.20;;;;;;497819;239;915;-73
2021/04/23 04:58:13;;;;;;;;;;;21.30;26.30;;;;;;497821;239;932;-73
2021/04/23 05:00:14;;;;;;;;;;;21.30;26.30;;;;;;497719;239;2185;-73
2021/04/23 05:02:15;;;;;;;;;;;21.30;26.30;;;;;;497821;239;996;-73
2021/04/23 05:04:17;;;;;;;;;;;21.30;26.30;;;;;;497687;240;1191;-73
2021/04/23 05:06:19;;;;;;;;;;;21.30;26.30;;;;;;497701;239;1009;-73
2021/04/23 05:08:20;;;;;;;;;;;21.30;26.30;;;;;;497630;239;1077;-72
2021/04/23 05:10:21;;;;;;;;;;;21.30;26.30;;;;;;497669;239;1247;-72
2021/04/23 05:12:22;;;;;;;;;;;21.20;26.30;;;;;;497682;239;1059;-72
2021/04/23 05:14:24;;;;;;;;;;;21.30;26.30;;;;;;497658;239;937;-72
2021/04/23 05:16:25;;;;;;;;;;;21.30;26.30;;;;;;497700;239;1255;-72
2021/04/23 05:18:26;;;;;;;;;;;21.30;26.30;;;;;;497539;239;1142;-73
2021/04/23 05:20:28;;;;;;;;;;;21.20;26.30;;;;;;497618;239;2180;-73
2021/04/23 05:22:29;;;;;;;;;;;21.30;26.30;;;;;;497572;239;1148;-73
2021/04/23 05:24:30;;;;;;;;;;;21.30;26.30;;;;;;497545;239;1256;-73
2021/04/23 05:26:32;;;;;;;;;;;21.30;26.30;;;;;;497568;239;1176;-73
2021/04/23 05:28:34;;;;;;;;;;;21.30;26.30;;;;;;497581;239;963;-73
2021/04/23 05:30:34;;;;;;;;;;;21.30;26.40;;;;;;497510;239;1379;-73
2021/04/23 05:32:35;;;;;;;;;;;21.30;26.40;;;;;;497609;239;1057;-73
2021/04/23 05:34:37;;;;;;;;;;;21.30;26.40;;;;;;497671;240;1243;-72
2021/04/23 05:36:38;;;;;;;;;;;21.30;26.40;;;;;;497712;239;1007;-73
2021/04/23 05:38:39;;;;;;;;;;;21.30;26.40;;;;;;497542;239;952;-72
2021/04/23 05:40:43;;;;;;;;;;;21.30;26.40;;;;;;497636;239;2181;-72
2021/04/23 05:42:42;;;;;;;;;;;21.30;26.40;;;;;;497587;239;1417;-72
2021/04/23 05:44:44;;;;;;;;;;;21.30;26.40;;;;;;497601;239;961;-72
2021/04/23 05:46:47;;;;;;;;;;;21.40;26.30;;;;;;497694;239;1068;-72
2021/04/23 05:48:48;;;;;;;;;;;21.50;26.40;;;;;;497666;239;1247;-72
2021/04/23 05:50:50;;;;;;;;;;;21.50;26.30;;;;;;497629;239;1340;-73
2021/04/23 05:52:51;;;;;;;;;;;21.50;26.30;;;;;;497721;239;972;-73
2021/04/23 05:54:54;;;;;;;;;;;21.60;26.20;;;;;;497445;239;1010;-73
2021/04/23 05:56:55;;;;;;;;;;;21.70;26.20;;;;;;497568;239;1142;-73
2021/04/23 05:58:59;;;;;;;;;;;21.70;26.10;;;;;;497687;239;984;-73
2021/04/23 06:01:00;;;;;;;;;;;21.80;26.00;;;;;;497659;239;2180;-73
2021/04/23 06:03:01;;;;;;;;;;;22.00;26.00;;;;;;497759;239;1010;-73
2021/04/23 06:05:03;;;;;;;;;;;22.10;25.80;;;;;;497676;239;1198;-73
2021/04/23 06:07:04;;;;;;;;;;;22.20;25.70;;;;;;497632;239;1095;-73
2021/04/23 06:09:06;;;;;;;;;;;22.20;25.70;;;;;;497642;239;999;-73
2021/04/23 06:11:14;;;;;;;;;;;22.20;25.80;;;;;;497570;240;1156;-73
2021/04/23 06:13:09;;;;;;;;;;;22.10;25.80;;;;;;497237;239;1386;-73
2021/04/23 06:15:10;;;;;;;;;;;22.00;25.90;;;;;;497396;239;1110;-73
2021/04/23 06:17:11;;;;;;;;;;;22.00;25.90;;;;;;497463;239;1104;-73
2021/04/23 06:19:12;;;;;;;;;;;22.00;26.00;;;;;;497461;239;1157;-73
2021/04/23 06:21:14;;;;;;;;;;;21.90;25.90;;;;;;497400;239;2126;-73
2021/04/23 06:23:15;;;;;;;;;;;21.90;26.00;;;;;;497425;239;1175;-73
2021/04/23 06:25:16;;;;;;;;;;;21.90;26.00;;;;;;497459;239;1024;-73
2021/04/23 06:27:18;;;;;;;;;;;22.00;26.00;;;;;;497453;239;1223;-73
2021/04/23 06:29:19;;;;;;;;;;;22.00;26.00;;;;;;497481;239;995;-73
2021/04/23 06:31:20;;;;;;;;;;;21.90;25.90;;;;;;497495;240;1273;-73
2021/04/23 06:33:26;;;;;;;;;;;22.00;26.00;;;;;;497495;239;1094;-73
2021/04/23 06:35:25;;;;;;;;;;;21.90;26.10;;;;;;497281;239;1344;-73
2021/04/23 06:37:26;;;;;;;;;;;21.90;26.10;;;;;;497215;240;1066;-73
2021/04/23 06:39:29;;;;;;;;;;;21.90;26.20;;;;;;497263;239;2193;-73
2021/04/23 06:41:30;;;;;;;;;;;21.80;26.20;;;;;;497357;238;1090;-73
2021/04/23 06:43:32;;;;;;;;;;;21.90;26.20;;;;;;497500;239;978;-73
2021/04/23 06:45:33;;;;;;;;;;;21.80;26.20;;;;;;497493;239;1099;-73
2021/04/23 06:47:34;;;;;;;;;;;21.90;26.20;;;;;;497489;239;1020;-73
2021/04/23 06:49:36;;;;;;;;;;;21.90;26.20;;;;;;497212;239;1290;-73
2021/04/23 06:51:37;;;;;;;;;;;21.90;26.20;;;;;;497374;239;1032;-73
2021/04/23 06:53:38;;;;;;;;;;;22.00;26.20;;;;;;497499;239;1040;-73
2021/04/23 06:55:40;;;;;;;;;;;22.10;26.10;;;;;;497398;239;1077;-73
2021/04/23 06:57:41;;;;;;;;;;;22.10;26.10;;;;;;497421;239;1616;-73
2021/04/23 06:59:42;;;;;;;;;;;22.00;26.10;;;;;;497452;239;2177;-73
2021/04/23 07:01:43;;;;;;;;;;;22.10;26.20;;;;;;497447;239;1074;-73
2021/04/23 07:03:45;;;;;;;;;;;22.10;26.10;;;;;;497512;239;977;-73
2021/04/23 07:05:46;;;;;;;;;;;22.20;26.10;;;;;;497540;239;1213;-73
2021/04/23 07:07:47;;;;;;;;;;;22.20;26.20;;;;;;497567;239;1032;-73
2021/04/23 07:09:48;;;;;;;;;;;22.10;26.10;;;;;;497439;239;1051;-73
2021/04/23 07:11:50;;;;;;;;;;;22.10;26.20;;;;;;497399;239;1138;-73
2021/04/23 07:13:52;;;;;;;;;;;22.10;26.20;;;;;;497427;239;1085;-73
2021/04/23 07:15:53;;;;;;;;;;;22.20;26.10;;;;;;497425;239;1186;-73
2021/04/23 07:17:55;;;;;;;;;;;22.20;26.10;;;;;;497375;239;1018;-73
2021/04/23 07:19:56;;;;;;;;;;;22.20;26.10;;;;;;497323;239;2162;-73
2021/04/23 07:21:57;;;;;;;;;;;22.20;26.10;;;;;;497398;239;1143;-73
2021/04/23 07:23:58;;;;;;;;;;;22.20;26.10;;;;;;497520;239;957;-73
2021/04/23 07:26:00;;;;;;;;;;;22.10;26.10;;;;;;497343;239;1373;-73
2021/04/23 07:28:02;;;;;;;;;;;22.00;26.10;;;;;;497315;239;1046;-73
2021/04/23 07:30:03;;;;;;;;;;;22.00;26.20;;;;;;497234;239;990;-73
2021/04/23 07:32:05;;;;;;;;;;;22.00;26.20;;;;;;497362;239;1193;-73
2021/04/23 07:34:06;;;;;;;;;;;22.00;26.20;;;;;;497341;239;1069;-73
2021/04/23 07:36:07;;;;;;;;;;;22.00;26.20;;;;;;497184;239;1205;-73
2021/04/23 07:38:09;;;;;;;;;;;22.00;26.20;;;;;;497318;238;1139;-73
2021/04/23 07:40:10;;;;;;;;;;;22.00;26.30;;;;;;497082;239;2129;-73
2021/04/23 07:42:11;;;;;;;;;;;22.00;26.30;;;;;;497256;239;1061;-73
2021/04/23 07:44:12;;;;;;;;;;;22.00;26.20;;;;;;496973;239;1254;-73
2021/04/23 07:46:15;;;;;;;;;;;22.10;26.20;;;;;;497331;239;1073;-73
2021/04/23 07:48:16;;;;;;;;;;;22.10;26.20;;;;;;497377;239;1070;-73
2021/04/23 07:50:17;;;;;;;;;;;22.10;26.30;;;;;;497357;239;1204;-73
2021/04/23 07:52:18;;;;;;;;;;;22.10;26.30;;;;;;497148;239;1051;-73
2021/04/23 07:54:20;;;;;;;;;;;22.10;26.30;;;;;;497381;239;1073;-73
2021/04/23 07:56:21;;;;;;;;;;;22.10;26.30;;;;;;497375;239;1153;-73
2021/04/23 07:58:22;;;;;;;;;;;22.10;26.20;;;;;;497173;240;1399;-73
2021/04/23 08:00:23;;;;;;;;;;;22.10;26.20;;;;;;497304;239;2186;-73
2021/04/23 08:02:25;;;;;;;;;;;22.00;26.10;;;;;;497329;239;1206;-73
2021/04/23 08:04:27;;;;;;;;;;;22.10;26.10;;;;;;497470;239;1078;-73
2021/04/23 08:06:28;;;;;;;;;;;22.00;26.10;;;;;;497454;239;1200;-73
2021/04/23 08:08:29;;;;;;;;;;;22.10;26.10;;;;;;497545;239;977;-73
2021/04/23 08:10:30;;;;;;;;;;;22.10;26.10;;;;;;497289;239;979;-73
2021/04/23 08:12:32;;;;;;;;;;;22.10;26.10;;;;;;497352;239;1113;-73
2021/04/23 08:14:33;;;;;;;;;;;22.00;26.10;;;;;;497395;239;1055;-73
2021/04/23 08:16:35;;;;;;;;;;;22.10;26.10;;;;;;496769;239;1256;-73
2021/04/23 08:18:39;;;;;;;;;;;22.10;26.20;;;;;;497369;239;1103;-73
2021/04/23 08:20:38;;;;;;;;;;;22.10;26.20;;;;;;497123;239;2137;-73
2021/04/23 08:22:39;;;;;;;;;;;22.10;26.20;;;;;;497239;240;1056;-73
2021/04/23 08:24:41;;;;;;;;;;;22.10;26.20;;;;;;497184;238;1144;-73
2021/04/23 08:26:43;;;;;;;;;;;22.10;26.10;;;;;;497226;239;1043;-73
2021/04/23 08:28:44;;;;;;;;;;;22.10;26.10;;;;;;497255;239;1244;-73
2021/04/23 08:30:45;;;;;;;;;;;22.10;26.10;;;;;;497428;239;1267;-73
2021/04/23 08:32:46;;;;;;;;;;;22.10;26.10;;;;;;497341;239;1145;-73
2021/04/23 08:34:47;;;;;;;;;;;22.10;26.20;;;;;;497222;239;1238;-73
2021/04/23 08:36:49;;;;;;;;;;;22.10;26.10;;;;;;497188;240;1196;-73
2021/04/23 08:38:50;;;;;;;;;;;22.00;26.10;;;;;;497310;239;1065;-73
2021/04/23 08:40:51;;;;;;;;;;;22.00;26.10;;;;;;497094;236;2194;-73
2021/04/23 08:42:53;;;;;;;;;;;21.90;26.10;;;;;;497247;239;1122;-73
2021/04/23 08:44:54;;;;;;;;;;;22.00;26.10;;;;;;497360;239;1518;-73
2021/04/23 08:46:55;;;;;;;;;;;22.00;26.10;;;;;;497175;239;1214;-73
2021/04/23 08:48:56;;;;;;;;;;;22.00;26.10;;;;;;497347;239;1034;-73
2021/04/23 08:50:58;;;;;;;;;;;22.00;26.00;;;;;;497339;239;1289;-73
2021/04/23 08:52:59;;;;;;;;;;;22.00;26.00;;;;;;497700;239;1060;-73
2021/04/23 08:55:00;;;;;;;;;;;22.00;26.00;;;;;;497351;239;1071;-73
2021/04/23 08:57:01;;;;;;;;;;;22.00;26.10;;;;;;497353;239;1120;-73
2021/04/23 08:59:03;;;;;;;;;;;22.00;26.10;;;;;;497438;239;992;-73
2021/04/23 09:01:04;;;;;;;;;;;22.00;26.00;;;;;;497370;239;2177;-73
2021/04/23 09:03:06;;;;;;;;;;;22.00;26.00;;;;;;497329;240;1131;-73
2021/04/23 09:05:07;;;;;;;;;;;22.00;26.00;;;;;;497538;239;1036;-73
2021/04/23 09:07:09;;;;;;;;;;;22.00;26.00;;;;;;497251;239;1291;-73
2021/04/23 09:09:13;;;;;;;;;;;22.10;26.00;;;;;;497336;239;1017;-73
2021/04/23 09:11:12;;;;;;;;;;;22.00;26.00;;;;;;497383;240;1380;-73
2021/04/23 09:13:14;;;;;;;;;;;22.10;26.00;;;;;;497345;239;1042;-73
2021/04/23 09:15:15;;;;;;;;;;;22.10;26.00;;;;;;497394;240;989;-73
2021/04/23 09:17:16;;;;;;;;;;;22.00;26.10;;;;;;497441;239;1208;-73
2021/04/23 09:19:19;;;;;;;;;;;22.00;26.20;;;;;;497437;239;980;-73
2021/04/23 09:21:20;;;;;;;;;;;22.00;26.30;;;;;;497283;239;2137;-73
2021/04/23 09:23:21;;;;;;;;;;;22.00;26.20;;;;;;497373;240;1081;-73
2021/04/23 09:25:22;;;;;;;;;;;22.00;26.20;;;;;;497362;239;1106;-73
2021/04/23 09:27:23;;;;;;;;;;;22.00;26.20;;;;;;497412;240;1283;-73
2021/04/23 09:29:25;;;;;;;;;;;22.10;26.30;;;;;;497427;239;1034;-73
2021/04/23 09:31:26;;;;;;;;;;;22.10;26.20;;;;;;497421;239;1085;-73
2021/04/23 09:33:27;;;;;;;;;;;22.20;26.30;;;;;;497449;239;1008;-73
2021/04/23 09:35:29;;;;;;;;;;;22.20;26.30;;;;;;497398;239;1021;-73
2021/04/23 09:37:30;;;;;;;;;;;22.20;26.20;;;;;;497315;239;1170;-73
2021/04/23 09:39:31;;;;;;;;;;;22.30;26.20;;;;;;497368;239;1053;-73
2021/04/23 09:41:33;;;;;;;;;;;22.40;26.10;;;;;;497435;239;2197;-73
2021/04/23 09:43:34;;;;;;;;;;;22.50;26.10;;;;;;497443;239;1137;-73
2021/04/23 09:45:35;;;;;;;;;;;22.60;26.10;;;;;;497459;239;965;-73
2021/04/23 09:47:37;;;;;;;;;;;22.50;26.10;;;;;;497381;239;1055;-73
2021/04/23 09:49:38;;;;;;;;;;;22.60;26.00;;;;;;497512;239;1068;-73
2021/04/23 09:51:39;;;;;;;;;;;22.70;25.90;;;;;;497396;239;1166;-73
2021/04/23 09:53:43;;;;;;;;;;;22.70;25.80;;;;;;497489;239;1017;-73
2021/04/23 09:55:42;;;;;;;;;;;22.70;25.80;;;;;;497381;239;1403;-73
2021/04/23 09:57:43;;;;;;;;;;;22.70;25.80;;;;;;497559;239;1033;-73
2021/04/23 09:59:44;;;;;;;;;;;22.70;25.90;;;;;;497351;239;983;-73
2021/04/23 10:01:45;;;;;;;;;;;22.70;25.80;;;;;;496671;238;2170;-73
2021/04/23 10:03:47;;;;;;;;;;;22.80;25.80;;;;;;497222;239;1058;-73
2021/04/23 10:05:48;;;;;;;;;;;22.80;25.70;;;;;;497394;239;1019;-73
2021/04/23 10:07:49;;;;;;;;;;;22.80;25.60;;;;;;497410;239;1300;-73
2021/04/23 10:09:52;;;;;;;;;;;22.90;25.60;;;;;;497484;239;1041;-73
2021/04/23 10:11:53;;;;;;;;;;;22.90;25.50;;;;;;496883;239;1256;-73
2021/04/23 10:13:54;;;;;;;;;;;22.90;25.50;;;;;;497373;239;1061;-73
2021/04/23 10:15:56;;;;;;;;;;;22.90;25.50;;;;;;497284;239;1055;-73
2021/04/23 10:17:58;;;;;;;;;;;22.90;25.50;;;;;;497407;239;1167;-73
2021/04/23 10:19:59;;;;;;;;;;;22.90;25.50;;;;;;497401;239;985;-73
2021/04/23 10:22:00;;;;;;;;;;;23.00;25.60;;;;;;496868;239;2177;-73
2021/04/23 10:24:01;;;;;;;;;;;23.00;25.60;;;;;;497469;239;1040;-73
2021/04/23 10:26:03;;;;;;;;;;;23.00;25.60;;;;;;497368;239;1092;-73
2021/04/23 10:28:04;;;;;;;;;;;23.00;25.60;;;;;;497429;239;1052;-73
2021/04/23 10:30:05;;;;;;;;;;;23.00;25.60;;;;;;497265;239;1110;-73
2021/04/23 10:32:06;;;;;;;;;;;22.90;25.60;;;;;;497074;239;1042;-70
2021/04/23 10:34:08;;;;;;;;;;;23.00;25.60;;;;;;496994;238;1028;-74
2021/04/23 10:36:09;;;;;;;;;;;23.00;25.60;;;;;;497282;239;1264;-73
2021/04/23 10:38:10;;;;;;;;;;;22.90;25.60;;;;;;497195;239;1142;-73
2021/04/23 10:40:12;;;;;;;;;;;23.00;25.60;;;;;;497095;239;1022;-73
2021/04/23 10:42:13;;;;;;;;;;;22.90;25.70;;;;;;497782;239;2223;-73
2021/04/23 10:44:16;;;;;;;;;;;23.00;25.70;;;;;;497821;239;1019;-74
2021/04/23 10:46:17;;;;;;;;;;;23.00;25.70;;;;;;497489;239;1419;-73
2021/04/23 10:48:17;;;;;;;;;;;23.00;25.70;;;;;;497593;239;1417;-73
2021/04/23 10:50:18;;;;;;;;;;;23.00;25.70;;;;;;497766;239;1032;-73
2021/04/23 10:52:19;;;;;;;;;;;22.90;25.70;;;;;;497616;239;1349;-73
2021/04/23 10:54:21;;;;;;;;;;;22.90;25.80;;;;;;497463;239;1037;-73
2021/04/23 10:56:22;;;;;;;;;;;22.80;25.80;;;;;;497393;239;1040;-73
2021/04/23 10:58:23;;;;;;;;;;;22.70;26.00;;;;;;497316;239;1042;-72
2021/04/23 11:00:25;;;;;;;;;;;22.50;26.10;;;;;;497565;239;1011;-73
2021/04/23 11:02:26;;;;;;;;;;;22.40;26.30;;;;;;497540;239;2177;-74
2021/04/23 11:04:27;;;;;;;;;;;22.40;26.30;;;;;;497831;239;1165;-73
2021/04/23 11:06:28;;;;;;;;;;;22.40;26.40;;;;;;497831;239;1034;-73
2021/04/23 11:08:30;;;;;;;;;;;22.40;26.40;;;;;;497677;239;1172;-73
2021/04/23 11:10:31;;;;;;;;;;;22.40;26.60;;;;;;497756;239;1004;-73
2021/04/23 11:12:32;;;;;;;;;;;22.30;26.50;;;;;;497382;239;1037;-73
2021/04/23 11:14:35;;;;;;;;;;;22.30;26.50;;;;;;497334;239;967;-73
2021/04/23 11:16:35;;;;;;;;;;;22.30;26.60;;;;;;497199;239;1414;-73
2021/04/23 11:18:37;;;;;;;;;;;22.30;26.50;;;;;;497413;239;1011;-73
2021/04/23 11:20:40;;;;;;;;;;;22.30;26.50;;;;;;497258;239;1132;-74
2021/04/23 11:22:39;;;;;;;;;;;22.20;26.40;;;;;;496834;240;2185;-73
2021/04/23 11:24:41;;;;;;;;;;;22.30;26.50;;;;;;497081;240;977;-73
2021/04/23 11:26:42;;;;;;;;;;;22.20;26.60;;;;;;497229;239;1154;-73
2021/04/23 11:28:43;;;;;;;;;;;22.20;26.60;;;;;;497214;239;1061;-73
2021/04/23 11:30:44;;;;;;;;;;;22.20;26.60;;;;;;497144;239;1258;-73
2021/04/23 11:32:46;;;;;;;;;;;22.20;26.70;;;;;;497322;239;1060;-73
2021/04/23 11:34:47;;;;;;;;;;;22.20;26.70;;;;;;497178;239;1063;-73
2021/04/23 11:36:48;;;;;;;;;;;22.20;26.60;;;;;;497102;239;1308;-73
2021/04/23 11:38:50;;;;;;;;;;;22.20;26.60;;;;;;497147;239;1101;-73
2021/04/23 11:40:51;;;;;;;;;;;22.10;26.70;;;;;;497079;239;1172;-73
2021/04/23 11:42:53;;;;;;;;;;;22.10;26.60;;;;;;497260;239;2177;-73
2021/04/23 11:44:54;;;;;;;;;;;22.10;26.60;;;;;;497451;239;943;-73
2021/04/23 11:46:55;;;;;;;;;;;22.20;26.50;;;;;;497450;240;1083;-73
2021/04/23 11:48:56;;;;;;;;;;;22.20;26.50;;;;;;497470;239;925;-72
2021/04/23 11:50:58;;;;;;;;;;;22.30;26.60;;;;;;497177;239;1188;-72
2021/04/23 11:53:00;;;;;;;;;;;22.30;26.60;;;;;;497187;239;1217;-73
2021/04/23 11:55:02;;;;;;;;;;;22.30;26.50;;;;;;497090;240;982;-73
2021/04/23 11:57:03;;;;;;;;;;;22.30;26.50;;;;;;497234;239;1064;-73
2021/04/23 11:59:04;;;;;;;;;;;22.30;26.50;;;;;;497242;239;1071;-73